Terminal Aerodrome Forecast
Issued by NWS Memphis, TN

Home | Current Version | Previous Version | Text Only | Print | Product List | Glossary On
Versions: 1 2 3 4 5 6 7 8 9 10 11 12 13 14 15 16 17 18 19 20 21 22 23 24 25 26 27
747
FTUS44 KMEG 280520
TAFMEM
TAF
KMEM 280520Z 2806/2906 VRB03KT P6SM VCSH SCT015 OVC060
      TEMPO 2806/2808 -SHRA BKN015
     FM280800 20005KT 6SM BR VCSH BKN007 OVC015
     FM281400 24008KT 6SM -SHRA BR VCTS BKN020CB OVC100
      TEMPO 2815/2819 VRB10G15KT 4SM -TSRA BKN030CB
     FM282000 25012KT P6SM VCSH SCT030 BKN045=

USA.gov is the U.S. government's official web portal to all federal, state and local government web resources and services.